FAOR

Olifants River Bridge Landing Strip Airport

Olifants River Bridge, South Africa
TAF FAOR 181600Z 1818/1924 19015KT CAVOK TEMPO 1818/1821 -TSRA FEW045CB BECMG 1822/1824 29007KT BECMG 1900/1902 06007KT BECMG 1907/1909 32010KT BECMG 1912/1914 SCT040 PROB40 TEMPO 1913/1916 FEW040TCU PROB30 TEMPO 1916/1924 -TSRA FEW040CB TX28/1913Z TN17/1903Z
Issued Valid From Valid To
Dec-18 @ 16:00 UTC
(7 hours ago)
Dec-18 @ 18:00 UTC
(5 hours ago)
Dec-20 @ 00:00 UTC
(-1 days ago)
Expired Click to View Dec-18 @ 18:00 to Dec-18 @ 22:00
TAF FAOR 181600Z 1818/1924 19015KT CAVOK
Wind Visibility Clouds Conditions
190° at 15 knots 10,000+ meters
  • No significant clouds
Expired Click to View Dec-18 @ 18:00 to Dec-18 @ 21:00
TEMPO 1818/1821 -TSRA FEW045CB
Clouds Conditions
  • Few at 4,500' AGL
  • Light Thunderstorm
  • Light Rain
Becoming Dec-18 @ 22:00 to Dec-19 @ 00:00
BECMG 1822/1824 29007KT
Wind Visibility Clouds Conditions
290° at 7 knots 10,000+ meters
  • No significant clouds
Becoming Dec-19 @ 00:00 to Dec-19 @ 07:00
BECMG 1900/1902 06007KT
Wind Visibility Clouds Conditions
60° at 7 knots 10,000+ meters
  • No significant clouds
Becoming Dec-19 @ 07:00 to Dec-19 @ 12:00
BECMG 1907/1909 32010KT
Wind Visibility Clouds Conditions
320° at 10 knots 10,000+ meters
  • No significant clouds
Becoming Dec-19 @ 12:00 to Dec-20 @ 00:00
BECMG 1912/1914 SCT040
Wind Visibility Clouds Conditions
320° at 10 knots 10,000+ meters
  • Scattered at 4,000' AGL
Temporary  (Probability 40%) Dec-19 @ 13:00 to Dec-19 @ 16:00
PROB40 TEMPO 1913/1916 FEW040TCU
Clouds
  • Few at 4,000' AGL
Temporary  (Probability 30%) Dec-19 @ 16:00 to Dec-20 @ 00:00
PROB30 TEMPO 1916/1924 -TSRA FEW040CB TX28/1913Z TN17/1903Z
Clouds Conditions
  • Few at 4,000' AGL
  • Light Thunderstorm
  • Light Rain
TAF FAOR 181600Z 1818/1924 19015KT CAVOK TEMPO 1818/1821 -TSRA FEW045CB BECMG 1822/1824 29007KT BECMG 1900/1902 06007KT BECMG 1907/1909 32010KT BECMG 1912/1914 SCT040 PROB40 TEMPO 1913/1916 FEW040TCU PROB30 TEMPO 1916/1924 -TSRA FEW040CB TX28/1913Z TN17/1903Z
Issued Dec-18 @ 16:00 UTC
(7 hours ago)
Valid From Dec-18 @ 18:00 UTC
(5 hours ago)
Valid To Dec-20 @ 00:00 UTC
(-1 days ago)
Dec-18 @ 18:00 - Dec-18 @ 22:00
Wind Visibility
190° at 15 knots 10,000+ meters
Clouds
  • No significant clouds
Conditions
Dec-18 @ 18:00 - Dec-18 @ 21:00
Clouds
  • Few at 4,500' AGL
Conditions
  • Light Thunderstorm
  • Light Rain
Becoming Dec-18 @ 22:00 - Dec-19 @ 00:00
Wind Visibility
290° at 7 knots 10,000+ meters
Clouds
  • No significant clouds
Conditions
Becoming Dec-19 @ 00:00 - Dec-19 @ 07:00
Wind Visibility
60° at 7 knots 10,000+ meters
Clouds
  • No significant clouds
Conditions
Becoming Dec-19 @ 07:00 - Dec-19 @ 12:00
Wind Visibility
320° at 10 knots 10,000+ meters
Clouds
  • No significant clouds
Conditions
Becoming Dec-19 @ 12:00 - Dec-20 @ 00:00
Wind Visibility
320° at 10 knots 10,000+ meters
Clouds
  • Scattered at 4,000' AGL
Conditions
Probability 40% Temporary Dec-19 @ 13:00 - Dec-19 @ 16:00
Clouds
  • Few at 4,000' AGL
Probability 30% Temporary Dec-19 @ 16:00 - Dec-20 @ 00:00
Clouds
  • Few at 4,000' AGL
Conditions
  • Light Thunderstorm
  • Light Rain